Huntsville, AR

1:24 PM CDT on August 24, 2016 (GMT -0500)
Huntsville, AR | | Change Station

Elev 1470 ft 36.19 °N, 93.68 °W | Updated 46 seconds ago

Mostly Cloudy
Mostly Cloudy
86.4 °F
Feels Like 99 °F
N
8.7
Wind Variable Wind from South
Gusts 9.8 mph

Today
High -- | Low -- °F
--% Chance of Precip.
Yesterday
High -- | Low -- °F
Precip. -- in
Pressure 30.14 in
Visibility 10.0 miles
Clouds Mostly Cloudy 4000 ft
Heat Index 99 °F
Dew Point 78 °F
Humidity 77%
Rainfall 0.00 in
Snow Depth Not available.
6:40 AM 7:52 PM
Waning Gibbous, 54% visible
METAR KASG 241748Z 21015KT 10SM BKN040 32/22 A3014
Pressure 30.14 in
Visibility 10.0 miles
Clouds Mostly Cloudy 4000 ft
Heat Index 99 °F
Dew Point 78 °F
Humidity 77%
Rainfall 0.00 in
Snow Depth Not available.
6:40 AM 7:52 PM
Waning Gibbous, 54% visible
METAR KASG 241748Z 21015KT 10SM BKN040 32/22 A3014

10-Day Weather Forecast

Almanac

Astronomy

Aug. 24, 2016 Rise Set
Actual Time
Civil Twilight
Nautical Twilight
Astronomical Twilight
Moon
Length of Visible Light
Length of Day
Tomorrow will be .
, % of the Moon is Illuminated

Today's Extremes

State Highs State Lows

Community

WunderPhotos

Upload Photos

1,934,664 photos uploaded!

WunderBlog® & News

Nearby

Air Quality

  Air Quality AQ Index Pollutant
Not available.

Snow Depth

Station Depth Elevation

Earthquake Activity

City Distance Mag. Time & Date
Minimum magnitude displayed is 2.5.

Coastal Water Temperatures

Place Temperature

Stations

Nearby Weather Stations

Station Location Temp. Windchill Dew Point Humidity Wind Precip. Elev Updated Type
                   

Watches & Warnings

There are currently no watches in effect.